Time;durP1;ratioP1;P1;durP2;ratioP2;P2;SDS_P1;SDS_P2;PMS_P1;PMS_P2;Temp;Humidity;BMP_temperature;BMP_pressure;BME280_temperature;BME280_humidity;BME280_pressure;Samples;Min_cycle;Max_cycle;Signal;HPM_P1;HPM_P2
2023/05/31 00:01:24;;;;;;;6.90;4.38;;;;;;;15.07;69.14;151071.91;5063722;28;20024;-68
2023/05/31 00:03:50;;;;;;;7.72;4.20;;;;;;;15.08;68.60;151075.75;5063760;28;20028;-68
2023/05/31 00:06:15;;;;;;;5.95;3.83;;;;;;;15.01;68.39;151057.75;5064171;28;20041;-68
2023/05/31 00:08:41;;;;;;;4.35;3.70;;;;;;;15.10;68.32;151079.63;5063583;28;20090;-68
2023/05/31 00:11:07;;;;;;;5.95;3.70;;;;;;;15.10;67.98;151079.63;5063605;28;20057;-68
2023/05/31 00:13:33;;;;;;;6.50;4.10;;;;;;;15.04;68.50;151064.19;5063061;28;20060;-66
2023/05/31 00:15:59;;;;;;;4.90;3.53;;;;;;;15.00;68.57;151056.44;5062413;28;20047;-70
2023/05/31 00:18:25;;;;;;;5.82;3.72;;;;;;;15.04;68.46;151065.47;5063707;28;20021;-69
2023/05/31 00:20:51;;;;;;;6.50;4.13;;;;;;;14.94;68.63;151039.72;5062460;28;20230;-70
2023/05/31 00:23:16;;;;;;;5.85;3.70;;;;;;;14.96;69.41;151046.19;5059077;28;20032;-69
2023/05/31 00:25:42;;;;;;;4.53;3.80;;;;;;;14.90;69.43;151030.72;5052973;28;20080;-69
2023/05/31 00:28:08;;;;;;;4.22;3.83;;;;;;;14.90;70.02;151030.72;5063424;28;20033;-68
2023/05/31 00:30:33;;;;;;;4.13;3.30;;;;;;;14.92;69.25;151034.56;5062906;28;20041;-69
2023/05/31 00:32:59;;;;;;;6.65;3.78;;;;;;;14.84;69.63;151016.56;5062333;28;20112;-70
2023/05/31 00:35:25;;;;;;;7.10;3.75;;;;;;;14.80;70.45;151005.00;5063462;28;20032;-70
2023/05/31 00:37:50;;;;;;;4.72;4.07;;;;;;;14.73;70.26;150986.97;5063675;28;20028;-69
2023/05/31 00:40:16;;;;;;;7.60;4.13;;;;;;;14.78;70.42;150999.84;5062401;28;20032;-68
2023/05/31 00:42:41;;;;;;;7.88;4.40;;;;;;;14.54;71.18;150940.63;5054051;28;20033;-68
2023/05/31 00:45:08;;;;;;;4.45;3.65;;;;;;;14.69;70.96;150977.94;5063390;28;20044;-69
2023/05/31 00:47:35;;;;;;;5.63;4.10;;;;;;;14.63;71.03;150963.78;5063414;28;20036;-67
2023/05/31 00:50:01;;;;;;;5.57;4.03;;;;;;;14.72;70.23;150984.38;5063314;28;20029;-69
2023/05/31 00:52:28;;;;;;;7.53;4.13;;;;;;;14.65;70.33;150968.97;5063025;28;20021;-70
2023/05/31 00:54:54;;;;;;;5.65;3.92;;;;;;;14.67;71.55;150974.09;5063261;28;20067;-69
2023/05/31 00:57:20;;;;;;;7.65;4.20;;;;;;;14.61;71.87;150958.63;5063121;28;20029;-69
2023/05/31 00:59:46;;;;;;;7.32;4.28;;;;;;;14.47;71.43;150922.63;5063315;28;20036;-70
2023/05/31 01:02:12;;;;;;;7.85;4.35;;;;;;;14.39;72.08;150903.28;5063348;28;20024;-70
2023/05/31 01:04:39;;;;;;;6.13;4.03;;;;;;;14.37;71.30;150898.16;5062957;28;20071;-68
2023/05/31 01:07:05;;;;;;;6.70;3.95;;;;;;;14.38;72.81;150900.75;5062889;28;20110;-70
2023/05/31 01:09:31;;;;;;;9.25;3.67;;;;;;;14.47;71.18;150922.63;5063022;28;20197;-68
2023/05/31 01:12:07;;;;;;;7.07;3.97;;;;;;;14.39;71.72;150903.28;5062977;28;20029;-69
2023/05/31 01:15:07;;;;;;;6.43;3.50;;;;;;;14.14;73.36;150841.59;5062894;28;20135;-69
2023/05/31 01:17:51;;;;;;;7.03;3.38;;;;;;;14.24;72.00;150866.03;5062727;28;20296;-69
2023/05/31 01:20:20;;;;;;;5.18;3.72;;;;;;;14.21;71.71;150857.00;5062886;28;20041;-69
2023/05/31 01:22:57;;;;;;;6.47;4.00;;;;;;;14.28;71.89;150875.00;5062571;28;20021;-70
2023/05/31 01:25:26;;;;;;;12.27;3.92;;;;;;;14.26;72.15;150871.16;5061678;28;20025;-69
2023/05/31 01:27:54;;;;;;;7.70;3.40;;;;;;;14.29;72.55;150878.91;5062743;28;20035;-70
2023/05/31 01:30:21;;;;;;;6.72;4.03;;;;;;;14.21;72.24;150858.31;5061173;28;20048;-70
2023/05/31 01:32:49;;;;;;;4.75;3.50;;;;;;;14.24;71.60;150866.03;5062812;28;20021;-70
2023/05/31 01:35:16;;;;;;;4.57;3.40;;;;;;;14.02;73.20;150810.72;5062833;28;20049;-68
2023/05/31 01:37:42;;;;;;;6.07;3.45;;;;;;;14.13;72.17;150837.72;5062633;28;20356;-68
2023/05/31 01:40:08;;;;;;;6.82;3.38;;;;;;;13.97;73.36;150799.16;5062533;28;20036;-67
2023/05/31 01:42:35;;;;;;;4.20;3.25;;;;;;;13.84;73.62;150764.41;5062703;28;20322;-70
2023/05/31 01:45:01;;;;;;;3.13;2.80;;;;;;;13.93;72.84;150787.59;5062632;28;20041;-69
2023/05/31 01:47:30;;;;;;;8.57;3.53;;;;;;;13.98;73.10;150800.47;5062474;28;20317;-69
2023/05/31 01:49:57;;;;;;;6.05;3.10;;;;;;;13.97;72.83;150799.16;5062813;28;20056;-69
2023/05/31 01:52:23;;;;;;;4.78;3.10;;;;;;;14.09;72.55;150828.69;5066209;28;20097;-69
2023/05/31 01:54:49;;;;;;;5.40;3.10;;;;;;;14.01;72.59;150808.16;5066314;28;20132;-69
2023/05/31 01:57:17;;;;;;;4.07;2.90;;;;;;;14.10;72.70;150831.28;5066257;28;20028;-68
2023/05/31 01:59:43;;;;;;;5.43;3.28;;;;;;;13.90;73.54;150781.16;5066166;28;20108;-69
2023/05/31 02:02:09;;;;;;;6.00;3.30;;;;;;;13.91;72.86;150782.41;5066116;28;20036;-69
2023/05/31 02:04:35;;;;;;;5.75;3.20;;;;;;;13.68;73.98;150725.91;5065936;28;20032;-70
2023/05/31 02:07:00;;;;;;;3.83;2.90;;;;;;;13.87;73.46;150773.44;5064919;28;20060;-68
2023/05/31 02:09:26;;;;;;;4.30;3.05;;;;;;;13.88;73.43;150776.03;5066157;28;20044;-68
2023/05/31 02:11:52;;;;;;;4.55;3.42;;;;;;;13.90;73.04;150779.88;5066043;28;20028;-69
2023/05/31 02:14:17;;;;;;;7.32;3.83;;;;;;;13.90;73.44;150779.88;5066165;28;20045;-68
2023/05/31 02:16:43;;;;;;;4.72;3.17;;;;;;;13.82;74.56;150760.56;5069658;28;20336;-68
2023/05/31 02:19:13;;;;;;;3.80;2.85;;;;;;;13.66;75.17;150719.47;5052951;28;20033;-68
2023/05/31 02:21:39;;;;;;;5.70;3.33;;;;;;;13.92;73.66;150785.00;5065647;28;20041;-70
2023/05/31 02:24:05;;;;;;;5.85;3.20;;;;;;;13.51;75.41;150683.47;5065770;28;20029;-71
2023/05/31 02:26:31;;;;;;;6.00;3.08;;;;;;;13.74;74.57;150741.31;5065632;28;20031;-70
2023/05/31 02:28:56;;;;;;;6.50;3.47;;;;;;;13.62;75.26;150711.75;5065534;28;20058;-69
2023/05/31 02:31:22;;;;;;;5.63;3.50;;;;;;;13.59;75.02;150702.72;5065617;28;20028;-70
2023/05/31 02:33:48;;;;;;;10.48;3.40;;;;;;;13.58;74.89;150700.16;5065815;28;20051;-69
2023/05/31 02:36:13;;;;;;;4.35;3.10;;;;;;;13.68;74.83;150725.91;5065067;28;20033;-69
2023/05/31 02:38:39;;;;;;;3.35;2.83;;;;;;;13.69;75.33;150727.16;5065299;28;20032;-68
2023/05/31 02:41:05;;;;;;;3.90;3.03;;;;;;;13.56;75.39;150696.31;5065531;28;20045;-68
2023/05/31 02:43:30;;;;;;;4.25;3.30;;;;;;;13.61;74.29;150709.16;5065404;28;20029;-69
2023/05/31 02:46:01;;;;;;;5.95;3.47;;;;;;;13.82;74.96;150760.56;5065624;28;20056;-69
2023/05/31 02:48:28;;;;;;;5.55;3.00;;;;;;;13.90;74.51;150779.88;5065140;28;20175;-67
2023/05/31 02:50:53;;;;;;;4.20;3.05;;;;;;;13.83;75.07;150761.88;5065204;28;20037;-67
2023/05/31 02:53:19;;;;;;;4.72;2.97;;;;;;;13.83;74.63;150763.16;5064966;28;20040;-67
2023/05/31 02:55:45;;;;;;;6.93;3.63;;;;;;;13.70;75.15;150729.75;5065159;28;20032;-69
2023/05/31 02:58:10;;;;;;;6.50;3.20;;;;;;;13.79;75.69;150754.13;5065146;28;20028;-70
2023/05/31 03:00:36;;;;;;;6.70;3.38;;;;;;;13.72;75.72;150734.88;5065268;28;20391;-69
2023/05/31 03:03:01;;;;;;;6.03;3.17;;;;;;;13.88;75.76;150774.72;5064113;28;20071;-70
2023/05/31 03:05:29;;;;;;;5.70;3.60;;;;;;;13.91;75.85;150783.72;5064752;28;20320;-69
2023/05/31 03:07:55;;;;;;;6.55;4.03;;;;;;;13.63;75.68;150714.28;5064894;28;20035;-69
2023/05/31 03:10:20;;;;;;;5.68;3.63;;;;;;;13.88;75.69;150776.03;5065034;28;20032;-68
2023/05/31 03:12:47;;;;;;;3.42;2.95;;;;;;;13.86;76.08;150769.59;5065028;28;20076;-68
2023/05/31 03:15:12;;;;;;;5.10;3.30;;;;;;;14.03;74.94;150813.28;5064896;28;20330;-70
2023/05/31 03:17:38;;;;;;;6.82;3.10;;;;;;;13.96;75.02;150795.28;5064361;28;20033;-69
2023/05/31 03:20:08;;;;;;;4.75;3.33;;;;;;;13.78;74.47;150751.59;5065300;28;20317;-70
2023/05/31 03:22:34;;;;;;;3.45;2.92;;;;;;;14.11;74.73;150833.88;5065992;28;20100;-70
2023/05/31 03:25:01;;;;;;;4.72;3.55;;;;;;;13.89;75.38;150778.56;5064708;28;20037;-68
2023/05/31 03:27:29;;;;;;;3.20;2.90;;;;;;;13.97;74.94;150797.88;5064925;28;20029;-67
2023/05/31 03:29:55;;;;;;;4.85;3.47;;;;;;;14.00;74.76;150804.31;5064339;28;20035;-70
2023/05/31 03:32:21;;;;;;;4.50;3.00;;;;;;;14.08;75.58;150824.84;5064321;28;20021;-70
2023/05/31 03:34:46;;;;;;;9.30;3.50;;;;;;;14.07;74.21;150822.31;5064274;28;20055;-70
2023/05/31 03:37:12;;;;;;;3.72;3.25;;;;;;;14.04;75.14;150814.56;5062962;28;20017;-71
2023/05/31 03:39:38;;;;;;;4.15;2.92;;;;;;;14.21;74.30;150857.00;5064225;28;20029;-70
2023/05/31 03:42:05;;;;;;;5.30;3.30;;;;;;;14.29;74.11;150878.91;5064473;28;20029;-70
2023/05/31 03:44:31;;;;;;;5.88;3.40;;;;;;;14.37;74.19;150896.91;5063124;28;20182;-71
2023/05/31 03:46:57;;;;;;;5.05;3.03;;;;;;;14.38;73.98;150900.75;5064116;28;20032;-70
2023/05/31 03:49:23;;;;;;;5.88;3.28;;;;;;;14.41;74.45;150907.16;5062713;28;20028;-70
2023/05/31 03:51:48;;;;;;;4.43;2.85;;;;;;;14.43;73.88;150912.31;5062824;28;20083;-69
2023/05/31 03:54:14;;;;;;;3.42;3.13;;;;;;;14.52;73.07;150934.19;5063965;28;20336;-69
2023/05/31 03:56:40;;;;;;;4.90;3.03;;;;;;;14.70;72.97;150980.53;5063981;28;20029;-68
2023/05/31 03:59:05;;;;;;;9.43;3.78;;;;;;;14.72;72.70;150985.72;5063965;28;20028;-69
2023/05/31 04:01:32;;;;;;;4.70;3.20;;;;;;;14.87;71.44;151023.00;5063653;28;20024;-68
2023/05/31 04:03:58;;;;;;;5.78;3.17;;;;;;;14.97;71.90;151048.72;5063602;28;20024;-71
2023/05/31 04:06:23;;;;;;;4.38;3.10;;;;;;;14.80;71.92;151005.00;5063512;28;20151;-71
2023/05/31 04:08:49;;;;;;;4.30;2.72;;;;;;;14.47;72.24;150922.63;5063244;28;20037;-70
2023/05/31 04:11:15;;;;;;;57.95;38.72;;;;;;;14.36;72.42;150895.59;5063595;28;20041;-68
2023/05/31 04:13:40;;;;;;;6.43;3.50;;;;;;;14.49;73.10;150929.06;5062951;28;20038;-67
2023/05/31 04:16:06;;;;;;;7.40;3.65;;;;;;;14.61;72.22;150958.63;5062962;28;20214;-67
2023/05/31 04:18:32;;;;;;;7.35;3.45;;;;;;;14.83;72.13;151012.69;5063292;28;20067;-67
2023/05/31 04:20:57;;;;;;;4.03;3.25;;;;;;;14.75;72.70;150992.09;5063374;28;20032;-67
2023/05/31 04:23:23;;;;;;;4.93;2.92;;;;;;;14.95;72.40;151043.59;5062319;28;20087;-67
2023/05/31 04:25:48;;;;;;;5.55;3.10;;;;;;;14.92;72.31;151034.56;5063519;28;20091;-67
2023/05/31 04:28:15;;;;;;;5.75;3.30;;;;;;;15.07;71.50;151071.91;5063235;28;20052;-67
2023/05/31 04:30:41;;;;;;;27.45;15.93;;;;;;;15.16;71.19;151096.34;5061732;28;20032;-68
2023/05/31 04:33:07;;;;;;;5.38;4.38;;;;;;;14.64;72.68;150965.13;5063387;28;20056;-67
2023/05/31 04:35:33;;;;;;;7.45;3.53;;;;;;;14.97;71.67;151047.44;5063123;28;20025;-70
2023/05/31 04:38:00;;;;;;;5.18;2.97;;;;;;;15.06;70.89;151069.31;5063456;28;20052;-68
2023/05/31 04:40:26;;;;;;;5.93;3.08;;;;;;;14.95;72.52;151043.59;5062922;28;20029;-68
2023/05/31 04:42:52;;;;;;;6.35;2.53;;;;;;;15.05;71.30;151066.72;5063179;28;20029;-70
2023/05/31 04:45:17;;;;;;;4.13;3.10;;;;;;;14.76;71.61;150995.97;5063455;28;20040;-70
2023/05/31 04:47:45;;;;;;;6.78;3.17;;;;;;;14.83;71.40;151013.97;5062137;28;20032;-71
2023/05/31 04:50:11;;;;;;;3.55;2.35;;;;;;;14.89;72.64;151026.84;5063109;28;20070;-71
2023/05/31 04:52:39;;;;;;;5.63;3.17;;;;;;;14.96;71.19;151044.84;5063254;28;20213;-69
2023/05/31 04:55:06;;;;;;;3.53;2.70;;;;;;;14.82;71.95;151010.09;5063340;28;20037;-70
2023/05/31 04:57:32;;;;;;;5.53;3.17;;;;;;;14.94;72.04;151041.00;5061960;28;20029;-70
2023/05/31 04:59:57;;;;;;;4.43;2.72;;;;;;;14.81;72.22;151007.56;5063397;28;20032;-68
2023/05/31 05:02:24;;;;;;;5.32;3.05;;;;;;;14.71;72.45;150981.81;5062944;28;20036;-68
2023/05/31 05:04:50;;;;;;;4.40;2.78;;;;;;;14.65;72.03;150968.97;5062694;28;20079;-68
2023/05/31 05:07:16;;;;;;;4.35;2.60;;;;;;;14.92;72.22;151035.88;5061265;28;20235;-67
2023/05/31 05:09:42;;;;;;;2.80;2.60;;;;;;;14.90;72.61;151030.72;5061214;28;20313;-68
2023/05/31 05:12:09;;;;;;;4.10;2.90;;;;;;;14.63;72.31;150962.53;5062329;28;20032;-68
2023/05/31 05:14:35;;;;;;;6.60;2.90;;;;;;;14.45;72.82;150918.75;5061695;28;20020;-68
2023/05/31 05:17:00;;;;;;;4.82;2.90;;;;;;;14.59;73.59;150952.19;5063172;28;20074;-69
2023/05/31 05:19:26;;;;;;;3.65;2.70;;;;;;;14.67;72.63;150974.09;5063102;28;20059;-70
2023/05/31 05:21:52;;;;;;;4.25;2.80;;;;;;;14.65;73.12;150968.97;5063027;28;20052;-69
2023/05/31 05:24:17;;;;;;;3.33;2.20;;;;;;;14.65;73.37;150967.66;5063094;28;20025;-69
2023/05/31 05:26:44;;;;;;;5.40;2.45;;;;;;;14.53;73.64;150938.03;5065774;28;20332;-70
2023/05/31 05:29:09;;;;;;;3.47;2.30;;;;;;;14.29;74.08;150878.91;5066198;28;20029;-69
2023/05/31 05:31:35;;;;;;;4.05;2.35;;;;;;;14.22;74.22;150859.59;5066556;28;20035;-68
2023/05/31 05:34:01;;;;;;;3.80;2.80;;;;;;;14.39;73.23;150902.03;5066929;28;20096;-70
2023/05/31 05:36:26;;;;;;;5.47;2.70;;;;;;;14.17;74.58;150846.75;5066876;28;20381;-69
2023/05/31 05:38:52;;;;;;;3.30;2.40;;;;;;;14.29;73.64;150877.59;5065958;28;20049;-70
2023/05/31 05:41:18;;;;;;;3.45;2.22;;;;;;;14.31;74.18;150882.75;5066878;28;20044;-68
2023/05/31 05:43:43;;;;;;;4.25;2.10;;;;;;;14.39;73.78;150903.28;5062081;28;20033;-68
2023/05/31 05:46:09;;;;;;;2.97;2.03;;;;;;;14.31;74.31;150884.03;5047093;28;20032;-69
2023/05/31 05:48:35;;;;;;;5.20;2.42;;;;;;;14.37;73.33;150898.16;5066316;28;20029;-68
2023/05/31 05:51:01;;;;;;;3.67;2.65;;;;;;;14.35;73.97;150891.72;5066267;28;20037;-67
2023/05/31 05:53:26;;;;;;;8.07;2.60;;;;;;;14.30;73.97;150881.44;5066283;28;20025;-67
2023/05/31 05:55:53;;;;;;;9.60;2.15;;;;;;;14.24;74.58;150866.03;5066341;28;20067;-69
2023/05/31 05:58:19;;;;;;;3.13;1.92;;;;;;;14.12;74.59;150835.16;5066242;28;20122;-69
2023/05/31 06:00:48;;;;;;;4.40;2.25;;;;;;;14.10;75.06;150830.03;5066156;28;20313;-69
2023/05/31 06:03:16;;;;;;;5.57;2.35;;;;;;;14.14;75.65;150841.59;5062185;28;20060;-67
2023/05/31 06:05:42;;;;;;;2.80;2.20;;;;;;;14.14;75.93;150841.59;5064821;28;20061;-68
2023/05/31 06:08:10;;;;;;;3.03;1.88;;;;;;;14.07;76.54;150823.59;5063889;28;20040;-67
2023/05/31 06:10:36;;;;;;;3.53;2.17;;;;;;;14.12;75.93;150836.47;5062773;28;20052;-68
2023/05/31 06:13:01;;;;;;;3.78;2.22;;;;;;;14.12;77.53;150835.16;5064842;28;20397;-67
2023/05/31 06:15:27;;;;;;;4.60;2.20;;;;;;;13.94;77.69;150790.19;5064954;28;20048;-67
2023/05/31 06:17:52;;;;;;;4.55;2.13;;;;;;;13.50;80.08;150679.63;5065230;28;20056;-67
2023/05/31 06:20:18;;;;;;;4.68;2.40;;;;;;;13.73;78.92;150738.72;5065992;28;20060;-68
2023/05/31 06:22:44;;;;;;;3.58;2.53;;;;;;;13.74;79.22;150740.03;5066193;28;20025;-65
2023/05/31 06:25:10;;;;;;;3.38;2.50;;;;;;;13.88;79.15;150774.72;5066398;28;20087;-66
2023/05/31 06:27:36;;;;;;;4.43;2.42;;;;;;;13.82;80.19;150760.56;5067014;28;20096;-68
2023/05/31 06:30:02;;;;;;;6.97;2.78;;;;;;;13.70;81.82;150729.75;5065188;28;20025;-67
2023/05/31 06:32:30;;;;;;;4.05;2.50;;;;;;;13.79;80.91;150752.88;5065782;28;20099;-67
2023/05/31 06:34:56;;;;;;;5.72;2.67;;;;;;;13.85;81.01;150768.28;5065107;28;20045;-68
2023/05/31 06:37:22;;;;;;;4.45;2.78;;;;;;;13.69;81.55;150728.44;5065223;28;20048;-67
2023/05/31 06:39:49;;;;;;;4.78;2.75;;;;;;;13.86;81.49;150769.59;5065052;28;20024;-67
2023/05/31 06:42:15;;;;;;;7.35;3.83;;;;;;;13.83;80.48;150761.88;5065234;28;20077;-68
2023/05/31 06:44:42;;;;;;;6.72;3.50;;;;;;;13.84;82.11;150764.41;5065144;28;20032;-67
2023/05/31 06:47:08;;;;;;;5.50;3.17;;;;;;;13.75;84.00;150742.56;5058014;28;20025;-67
2023/05/31 06:49:34;;;;;;;5.25;3.00;;;;;;;13.52;83.05;150686.00;5049638;28;20031;-67
2023/05/31 06:52:00;;;;;;;5.10;2.88;;;;;;;13.75;82.07;150743.91;5064372;28;20017;-67
2023/05/31 06:54:27;;;;;;;4.63;2.13;;;;;;;13.77;81.81;150747.75;5062683;28;20031;-67
2023/05/31 06:56:52;;;;;;;2.60;2.17;;;;;;;13.70;83.41;150729.75;5064311;28;20024;-66
2023/05/31 06:59:18;;;;;;;5.30;2.50;;;;;;;13.65;83.01;150718.16;5064426;28;20024;-66
2023/05/31 07:01:44;;;;;;;2.90;2.20;;;;;;;13.63;84.23;150713.03;5062926;28;20028;-67
2023/05/31 07:04:09;;;;;;;5.07;2.88;;;;;;;13.64;83.63;150715.63;5064133;28;20036;-66
2023/05/31 07:06:37;;;;;;;5.03;2.50;;;;;;;13.67;85.10;150722.00;5063142;28;20290;-67
2023/05/31 07:09:04;;;;;;;5.70;2.30;;;;;;;13.71;83.87;150732.28;5046170;28;20068;-67
2023/05/31 07:11:29;;;;;;;2.85;1.90;;;;;;;13.68;83.63;150724.59;5062663;28;20028;-67
2023/05/31 07:13:59;;;;;;;5.93;2.58;;;;;;;13.76;84.62;150745.16;5064312;28;20024;-67
2023/05/31 07:16:25;;;;;;;4.60;2.30;;;;;;;13.60;84.41;150706.59;5061558;28;20314;-67
2023/05/31 07:18:50;;;;;;;2.22;2.03;;;;;;;13.52;84.22;150686.00;5063949;28;20151;-67
2023/05/31 07:21:16;;;;;;;2.50;1.90;;;;;;;13.43;84.97;150662.91;5064408;28;20078;-65
2023/05/31 07:23:41;;;;;;;4.13;2.85;;;;;;;13.37;86.27;150648.75;5063609;28;20027;-65
2023/05/31 07:26:07;;;;;;;4.45;2.17;;;;;;;13.32;87.36;150634.56;5063450;28;20244;-65
2023/05/31 07:28:33;;;;;;;6.85;4.38;;;;;;;13.27;87.34;150624.28;5062853;28;20044;-65
2023/05/31 07:30:58;;;;;;;4.72;3.20;;;;;;;13.20;87.78;150606.31;5063660;28;20075;-65
2023/05/31 07:33:24;;;;;;;2.20;2.00;;;;;;;13.18;87.97;150601.19;5063676;28;20031;-65
2023/05/31 07:35:50;;;;;;;2.50;2.30;;;;;;;13.21;89.10;150607.56;5062757;28;20033;-66
2023/05/31 07:38:15;;;;;;;4.28;3.20;;;;;;;12.91;89.00;150533.06;5064133;28;20036;-67
2023/05/31 07:40:41;;;;;;;3.20;2.30;;;;;;;12.93;88.12;150539.47;5063540;28;20051;-66
2023/05/31 07:43:07;;;;;;;3.20;1.80;;;;;;;12.73;89.70;150488.13;5063881;28;20052;-66
2023/05/31 07:45:33;;;;;;;3.03;1.90;;;;;;;12.81;90.91;150508.63;5060941;28;20033;-65
2023/05/31 07:47:58;;;;;;;1.98;1.80;;;;;;;12.97;90.68;150547.19;5058695;28;20032;-66
2023/05/31 07:50:25;;;;;;;2.15;1.60;;;;;;;12.92;89.11;150536.91;5063349;28;20025;-65
2023/05/31 07:52:51;;;;;;;3.35;1.88;;;;;;;13.06;89.82;150571.59;5062450;28;20017;-66
2023/05/31 07:55:17;;;;;;;1.85;1.50;;;;;;;13.10;90.80;150581.88;5063048;28;20039;-66
2023/05/31 07:57:43;;;;;;;2.35;1.92;;;;;;;12.94;89.95;150542.06;5063223;28;20024;-66
2023/05/31 08:00:13;;;;;;;5.05;2.22;;;;;;;13.22;89.46;150610.16;5063537;28;20025;-66
2023/05/31 08:02:39;;;;;;;2.80;2.00;;;;;;;13.30;90.85;150630.72;5063542;28;20256;-65
2023/05/31 08:05:05;;;;;;;3.80;2.08;;;;;;;13.38;91.07;150651.34;5063177;28;20117;-65
2023/05/31 08:07:31;;;;;;;2.50;2.30;;;;;;;13.56;90.03;150696.31;5063017;28;20036;-65
2023/05/31 08:09:56;;;;;;;5.25;2.22;;;;;;;13.74;88.25;150740.03;5063361;28;20032;-67
2023/05/31 08:12:22;;;;;;;2.55;2.00;;;;;;;13.67;89.87;150723.31;5062508;28;20039;-68
2023/05/31 08:14:47;;;;;;;4.18;2.80;;;;;;;13.74;88.62;150741.31;5062443;28;20328;-67
2023/05/31 08:17:13;;;;;;;4.47;2.17;;;;;;;13.81;86.04;150759.31;5062105;28;20078;-67
2023/05/31 08:19:38;;;;;;;2.65;1.98;;;;;;;13.75;84.89;150742.56;5062696;28;20029;-67
2023/05/31 08:22:05;;;;;;;5.45;2.42;;;;;;;13.83;84.72;150763.16;5061905;28;20040;-66
2023/05/31 08:24:30;;;;;;;3.20;2.42;;;;;;;13.77;84.17;150749.00;5055118;28;20033;-66
2023/05/31 08:26:58;;;;;;;4.57;2.15;;;;;;;13.83;85.47;150763.16;5061018;28;20043;-66
2023/05/31 08:29:23;;;;;;;1.95;1.70;;;;;;;13.91;83.73;150783.72;5061294;28;20049;-65
2023/05/31 08:31:49;;;;;;;3.70;1.80;;;;;;;13.98;84.54;150801.72;5061312;28;20468;-65
2023/05/31 08:34:15;;;;;;;2.58;1.90;;;;;;;13.92;83.85;150786.31;5062385;28;20025;-65
2023/05/31 08:36:40;;;;;;;2.08;1.65;;;;;;;13.78;82.59;150751.59;5062784;28;20036;-66
2023/05/31 08:39:08;;;;;;;3.45;2.10;;;;;;;13.89;83.94;150778.56;5061435;28;20044;-66
2023/05/31 08:41:42;;;;;;;5.40;2.47;;;;;;;13.75;83.77;150742.56;5062604;28;20025;-67
2023/05/31 08:44:08;;;;;;;2.47;1.85;;;;;;;13.86;84.26;150770.88;5059691;28;20048;-66
2023/05/31 08:46:34;;;;;;;3.95;1.95;;;;;;;13.89;85.01;150778.56;5060385;28;20045;-64
2023/05/31 08:49:05;;;;;;;2.97;1.50;;;;;;;13.76;82.79;150746.44;5061906;28;20032;-66
2023/05/31 08:51:34;;;;;;;2.25;1.80;;;;;;;13.68;83.07;150725.91;5061192;28;20256;-66
2023/05/31 08:54:00;;;;;;;3.75;1.85;;;;;;;13.85;81.25;150767.00;5062461;28;20035;-66
2023/05/31 08:56:26;;;;;;;4.32;2.00;;;;;;;13.90;80.85;150779.88;5061522;28;20100;-65
2023/05/31 08:58:53;;;;;;;3.08;1.60;;;;;;;14.07;80.06;150822.31;5058147;28;20100;-65
2023/05/31 09:01:20;;;;;;;5.55;2.03;;;;;;;14.06;80.29;150819.72;5064759;28;20020;-66
2023/05/31 09:03:45;;;;;;;3.03;1.73;;;;;;;14.01;78.71;150808.16;5066184;28;20329;-66
2023/05/31 09:06:11;;;;;;;2.50;1.70;;;;;;;14.31;78.18;150884.03;5064395;28;20093;-66
2023/05/31 09:08:37;;;;;;;3.10;1.92;;;;;;;14.38;79.18;150899.44;5066340;28;20029;-66
2023/05/31 09:11:03;;;;;;;3.97;2.00;;;;;;;14.39;79.08;150902.03;5065871;28;20079;-66
2023/05/31 09:13:29;;;;;;;2.05;1.60;;;;;;;14.37;76.86;150896.91;5066491;28;20029;-66
2023/05/31 09:15:55;;;;;;;5.15;1.77;;;;;;;14.14;75.81;150840.31;5066723;28;20352;-67
2023/05/31 09:18:23;;;;;;;2.25;1.75;;;;;;;14.25;75.61;150868.59;5066430;28;20297;-68
2023/05/31 09:20:53;;;;;;;3.80;1.80;;;;;;;14.02;76.08;150810.72;5066315;28;20028;-68
2023/05/31 09:23:18;;;;;;;4.80;2.13;;;;;;;14.34;75.62;150890.47;5063716;28;20134;-66
2023/05/31 09:25:51;;;;;;;5.55;2.00;;;;;;;14.34;76.78;150890.47;5048047;28;20214;-68
2023/05/31 09:28:19;;;;;;;2.25;1.90;;;;;;;13.76;76.45;150746.44;5066163;28;20223;-67
2023/05/31 09:30:44;;;;;;;3.80;2.58;;;;;;;14.05;77.97;150817.16;5043580;28;20041;-65
2023/05/31 09:33:12;;;;;;;3.03;1.90;;;;;;;13.83;78.04;150763.16;5064111;28;20074;-66
2023/05/31 09:35:55;;;;;;;3.03;2.05;;;;;;;13.77;77.70;150747.75;5065512;28;20079;-67
2023/05/31 09:38:32;;;;;;;1.88;1.70;;;;;;;13.84;77.62;150764.41;5066359;28;20337;-66
2023/05/31 09:41:11;;;;;;;2.58;2.20;;;;;;;13.92;79.00;150786.31;5065722;28;20029;-66
2023/05/31 09:43:44;;;;;;;3.40;1.98;;;;;;;13.85;75.77;150767.00;5065431;28;20337;-65
2023/05/31 09:46:19;;;;;;;3.63;2.25;;;;;;;13.97;75.90;150797.88;5064723;28;20036;-66
2023/05/31 09:48:45;;;;;;;3.00;1.95;;;;;;;13.85;74.67;150768.28;5065407;28;20032;-66
2023/05/31 09:51:13;;;;;;;1.90;1.80;;;;;;;13.99;76.90;150803.00;5065276;28;20329;-66
2023/05/31 09:53:41;;;;;;;4.80;2.42;;;;;;;14.00;77.65;150804.31;5065515;28;20520;-68
2023/05/31 09:56:16;;;;;;;5.63;2.55;;;;;;;13.98;77.85;150801.72;5060588;28;20047;-66
2023/05/31 09:58:42;;;;;;;4.45;2.08;;;;;;;13.97;75.28;150797.88;5065393;28;20044;-67
2023/05/31 10:01:09;;;;;;;5.18;2.28;;;;;;;14.14;75.76;150841.59;5065931;28;20025;-68
2023/05/31 10:03:35;;;;;;;5.05;2.10;;;;;;;14.44;75.00;150916.19;5064412;28;20025;-68
2023/05/31 10:06:01;;;;;;;4.85;2.38;;;;;;;14.35;75.01;150891.72;5065409;28;20040;-67
2023/05/31 10:08:27;;;;;;;3.25;2.10;;;;;;;14.27;73.83;150872.47;5065168;28;20033;-66
2023/05/31 10:10:55;;;;;;;3.53;2.58;;;;;;;13.85;73.47;150768.28;5063702;28;20041;-66
2023/05/31 10:13:24;;;;;;;6.00;2.40;;;;;;;13.85;73.58;150768.28;5065421;28;20082;-67
2023/05/31 10:15:53;;;;;;;2.95;2.15;;;;;;;13.77;72.88;150747.75;5065409;28;20033;-67
2023/05/31 10:18:23;;;;;;;3.38;2.50;;;;;;;13.63;73.04;150714.28;5065466;28;20033;-67
2023/05/31 10:20:53;;;;;;;3.47;2.40;;;;;;;13.78;74.78;150750.28;5064960;28;20087;-68
2023/05/31 10:23:23;;;;;;;3.70;2.83;;;;;;;13.63;75.43;150714.28;5065339;28;20025;-67
2023/05/31 10:26:13;;;;;;;3.25;2.40;;;;;;;13.60;76.74;150706.59;5063647;28;20120;-67
2023/05/31 10:28:51;;;;;;;4.00;2.53;;;;;;;13.50;74.68;150680.91;5064672;28;20043;-67
2023/05/31 10:31:22;;;;;;;4.45;2.58;;;;;;;13.36;74.88;150644.91;5063903;28;20283;-67
2023/05/31 10:33:53;;;;;;;3.00;2.40;;;;;;;13.42;74.98;150660.31;5065130;28;20040;-67
2023/05/31 10:36:19;;;;;;;4.85;2.58;;;;;;;13.44;74.98;150665.50;5065248;28;20049;-67
2023/05/31 10:39:07;;;;;;;5.35;2.45;;;;;;;13.16;75.44;150594.75;5064867;28;20032;-66
2023/05/31 10:41:39;;;;;;;5.03;2.60;;;;;;;13.21;74.15;150607.56;5064802;28;20119;-68
2023/05/31 10:44:12;;;;;;;5.50;2.70;;;;;;;13.15;74.45;150593.44;5063919;28;20079;-67
2023/05/31 10:46:40;;;;;;;4.05;2.40;;;;;;;13.06;75.43;150570.34;5064849;28;20025;-67
2023/05/31 10:49:10;;;;;;;3.78;2.40;;;;;;;12.75;75.95;150493.22;5080271;28;20021;-67
2023/05/31 10:51:49;;;;;;;3.47;2.30;;;;;;;12.64;77.05;150464.97;5064344;28;20036;-67
2023/05/31 10:54:20;;;;;;;3.35;2.22;;;;;;;12.72;75.75;150486.81;5065048;28;20033;-66
2023/05/31 10:56:55;;;;;;;3.78;2.45;;;;;;;12.56;75.62;150445.72;5064875;28;20025;-67
2023/05/31 10:59:22;;;;;;;5.75;4.63;;;;;;;12.59;75.85;150454.69;5064557;28;20024;-66
2023/05/31 11:01:48;;;;;;;4.07;2.60;;;;;;;12.79;76.22;150503.50;5064731;28;20056;-67
2023/05/31 11:04:24;;;;;;;4.75;2.45;;;;;;;12.88;75.49;150526.66;5064751;28;20036;-67
2023/05/31 11:06:55;;;;;;;2.65;2.30;;;;;;;12.73;75.00;150489.38;5045079;28;20047;-65
2023/05/31 11:09:21;;;;;;;4.03;2.47;;;;;;;12.48;75.43;150426.44;5061133;28;20119;-66
2023/05/31 11:11:49;;;;;;;5.30;3.13;;;;;;;12.38;76.05;150400.75;5064316;28;20037;-66
2023/05/31 11:14:25;;;;;;;6.47;3.67;;;;;;;12.64;76.27;150466.28;5064599;28;20229;-66
2023/05/31 11:16:52;;;;;;;7.20;3.10;;;;;;;12.47;76.28;150423.91;5064428;28;20055;-66
2023/05/31 11:19:21;;;;;;;5.68;3.00;;;;;;;12.31;75.20;150384.06;5064141;28;20057;-66
2023/05/31 11:21:51;;;;;;;5.80;2.72;;;;;;;12.54;74.78;150440.56;5062927;28;20032;-66
2023/05/31 11:24:31;;;;;;;6.10;3.25;;;;;;;12.46;74.56;150421.31;5063348;28;20044;-67